createdAt,value
2023-01-08T00:01:23.649Z,0.88
2023-01-08T00:06:25.209Z,1.08
2023-01-08T00:11:26.728Z,1.25
2023-01-08T00:16:28.789Z,1.10
2023-01-08T00:21:30.306Z,0.82
2023-01-08T00:26:31.915Z,1.05
2023-01-08T00:31:33.494Z,1.55
2023-01-08T00:36:34.979Z,0.93
2023-01-08T00:41:36.478Z,1.00
2023-01-08T00:46:37.969Z,1.02
2023-01-08T00:51:39.465Z,1.27
2023-01-08T00:56:40.964Z,1.15
2023-01-08T01:01:42.636Z,0.95
2023-01-08T01:06:44.719Z,1.75
2023-01-08T01:11:46.218Z,1.50
2023-01-08T01:16:47.847Z,1.42
2023-01-08T01:21:49.405Z,0.93
2023-01-08T01:26:53.720Z,1.50
2023-01-08T01:31:55.209Z,1.50
2023-01-08T01:36:56.689Z,1.92
2023-01-08T01:41:58.234Z,1.30
2023-01-08T01:47:01.432Z,1.50
2023-01-08T01:52:05.619Z,1.25
2023-01-08T01:57:07.997Z,1.92
2023-01-08T02:02:09.700Z,1.48
2023-01-08T02:07:17.365Z,1.85
2023-01-08T02:12:45.723Z,1.73
2023-01-08T02:18:20.057Z,1.67
2023-01-08T02:23:28.363Z,1.60
2023-01-08T02:28:41.350Z,2.20
2023-01-08T02:33:44.042Z,2.08
2023-01-08T02:39:24.856Z,1.65
2023-01-08T02:44:48.523Z,1.80
2023-01-08T02:49:57.506Z,1.52
2023-01-08T02:55:03.328Z,1.92
2023-01-08T03:00:07.748Z,1.70
2023-01-08T03:05:21.087Z,2.00
2023-01-08T03:10:26.920Z,2.05
2023-01-08T03:15:37.654Z,3.10
2023-01-08T03:20:40.225Z,2.35
2023-01-08T03:25:45.410Z,1.83
2023-01-08T03:30:51.010Z,2.47
2023-01-08T03:35:56.115Z,2.03
2023-01-08T03:41:05.380Z,2.70
2023-01-08T03:46:16.902Z,2.38
2023-01-08T03:51:19.852Z,2.30
2023-01-08T03:56:22.210Z,2.35
2023-01-08T04:01:24.383Z,2.17
2023-01-08T04:06:27.237Z,1.92
2023-01-08T04:11:30.049Z,1.80
2023-01-08T04:16:32.334Z,1.83
2023-01-08T04:21:34.547Z,1.25
2023-01-08T04:26:36.056Z,0.85
2023-01-08T04:31:37.755Z,1.00
2023-01-08T04:36:39.837Z,0.85
2023-01-08T04:41:41.759Z,0.50
2023-01-08T04:46:44.402Z,0.80
2023-01-08T04:51:46.371Z,0.65
2023-01-08T04:56:51.509Z,0.63
2023-01-08T05:01:54.387Z,0.30
2023-01-08T05:06:56.788Z,0.82
2023-01-08T05:11:58.663Z,0.68
2023-01-08T05:17:00.910Z,0.52
2023-01-08T05:22:02.476Z,0.60
2023-01-08T05:27:04.544Z,0.55
2023-01-08T05:32:16.041Z,0.30
2023-01-08T05:37:18.952Z,0.45
2023-01-08T05:42:21.560Z,0.98
2023-01-08T05:47:24.227Z,0.50
2023-01-08T05:52:26.645Z,0.40
2023-01-08T05:57:28.457Z,0.55
2023-01-08T06:02:30.341Z,0.30
2023-01-08T06:07:32.476Z,0.35
2023-01-08T06:12:35.132Z,0.40
2023-01-08T06:17:37.590Z,0.50
2023-01-08T06:22:40.207Z,0.20
2023-01-08T06:27:42.006Z,0.50
2023-01-08T06:32:44.160Z,0.77
2023-01-08T06:37:46.270Z,0.40
2023-01-08T06:42:49.000Z,0.40
2023-01-08T06:47:50.840Z,0.52
2023-01-08T06:52:53.759Z,0.47
2023-01-08T06:57:57.503Z,0.50
2023-01-08T07:03:00.476Z,0.40
2023-01-08T07:08:02.407Z,0.40
2023-01-08T07:13:04.762Z,0.40
2023-01-08T07:18:11.887Z,0.60
2023-01-08T07:23:13.763Z,0.60
2023-01-08T07:28:16.497Z,0.50
2023-01-08T07:33:19.435Z,0.40
2023-01-08T07:38:21.495Z,0.60
2023-01-08T07:43:23.110Z,0.65
2023-01-08T07:48:25.302Z,0.65
2023-01-08T07:53:27.214Z,0.47
2023-01-08T07:58:29.709Z,0.60
2023-01-08T08:03:31.437Z,0.50
2023-01-08T08:08:34.073Z,0.50
2023-01-08T08:13:36.871Z,0.52
2023-01-08T08:18:39.464Z,0.30
2023-01-08T08:23:41.212Z,0.70
2023-01-08T08:28:43.478Z,0.60
2023-01-08T08:33:45.938Z,0.60
2023-01-08T08:38:48.329Z,0.38
2023-01-08T08:43:50.329Z,0.60
2023-01-08T08:48:52.655Z,0.60
2023-01-08T08:53:54.641Z,0.77
2023-01-08T08:58:56.723Z,0.60
2023-01-08T09:03:58.779Z,0.55
2023-01-08T09:09:01.873Z,0.50
2023-01-08T09:14:04.007Z,0.98
2023-01-08T09:19:06.243Z,0.70
2023-01-08T09:24:09.603Z,0.57
2023-01-08T09:29:11.663Z,0.30
2023-01-08T09:34:13.763Z,0.63
2023-01-08T09:39:16.359Z,0.50
2023-01-08T09:44:23.047Z,0.75
2023-01-08T09:54:29.470Z,0.60
2023-01-08T09:59:31.725Z,1.17
2023-01-08T10:04:34.566Z,0.80
2023-01-08T10:09:36.428Z,0.68
2023-01-08T10:14:41.232Z,0.80
2023-01-08T10:19:45.977Z,0.70
2023-01-08T10:24:48.300Z,0.77
2023-01-08T10:29:51.590Z,0.70
2023-01-08T10:34:58.036Z,0.82
2023-01-08T10:45:24.982Z,0.65
2023-01-08T10:50:32.601Z,0.60
2023-01-08T10:55:36.943Z,0.52
2023-01-08T11:00:39.657Z,0.30
2023-01-08T11:05:41.465Z,0.60
2023-01-08T11:10:52.416Z,0.45
2023-01-08T11:16:07.116Z,0.57
2023-01-08T11:21:18.676Z,0.57
2023-01-08T11:26:22.659Z,0.60
2023-01-08T11:32:03.809Z,0.50
2023-01-08T11:37:13.998Z,0.60
2023-01-08T11:42:43.313Z,0.77
2023-01-08T11:47:48.118Z,0.60
2023-01-08T11:53:22.111Z,0.68
2023-01-08T11:58:38.097Z,0.60
2023-01-08T12:03:54.819Z,0.50
2023-01-08T12:09:13.267Z,0.70
2023-01-08T12:14:39.887Z,0.40
2023-01-08T12:20:06.163Z,0.43
2023-01-08T12:25:31.827Z,0.30
2023-01-08T12:31:09.181Z,0.60
2023-01-08T12:41:20.063Z,0.40
2023-01-08T12:46:25.318Z,0.40
2023-01-08T12:51:32.866Z,0.22
2023-01-08T12:56:49.626Z,0.30
2023-01-08T13:02:02.934Z,0.20
2023-01-08T13:07:05.863Z,0.20
2023-01-08T13:12:13.005Z,0.20
2023-01-08T13:17:20.627Z,0.30
2023-01-08T13:22:37.166Z,0.68
2023-01-08T13:27:39.602Z,0.20
2023-01-08T13:32:47.105Z,0.35
2023-01-08T13:38:08.096Z,0.40
2023-01-08T13:43:18.903Z,0.28
2023-01-08T13:48:22.910Z,0.50
2023-01-08T13:53:25.097Z,0.50
2023-01-08T13:58:31.044Z,0.22
2023-01-08T14:09:07.436Z,0.35
2023-01-08T14:14:13.332Z,0.40
2023-01-08T14:19:18.856Z,0.43
2023-01-08T14:24:23.877Z,0.38
2023-01-08T14:29:30.486Z,0.50
2023-01-08T14:34:37.281Z,0.30
2023-01-08T14:39:39.224Z,0.40
2023-01-08T14:44:42.634Z,0.50
2023-01-08T14:49:52.774Z,0.30
2023-01-08T14:54:59.190Z,0.40
2023-01-08T15:00:02.804Z,0.30
2023-01-08T15:05:16.077Z,0.80
2023-01-08T15:10:45.421Z,0.70
2023-01-08T15:16:05.417Z,0.30
2023-01-08T15:21:09.110Z,1.10
2023-01-08T15:26:14.222Z,3.97
2023-01-08T15:31:29.974Z,0.80
2023-01-08T15:36:31.590Z,1.00
2023-01-08T15:41:36.901Z,0.77
2023-01-08T15:46:39.028Z,0.50
2023-01-08T15:51:50.555Z,0.65
2023-01-08T15:56:52.706Z,4.75
2023-01-08T16:01:54.960Z,3.55
2023-01-08T16:06:57.331Z,0.85
2023-01-08T16:11:59.699Z,0.60
2023-01-08T16:17:01.882Z,0.82
2023-01-08T16:22:03.891Z,1.50
2023-01-08T16:27:05.731Z,2.33
2023-01-08T16:32:07.621Z,1.23
2023-01-08T16:37:10.312Z,0.68
2023-01-08T16:42:13.614Z,1.00
2023-01-08T16:47:16.008Z,0.80
2023-01-08T16:52:18.478Z,0.75
2023-01-08T16:57:20.701Z,0.57
2023-01-08T17:02:23.180Z,0.77
2023-01-08T17:07:25.251Z,0.85
2023-01-08T17:12:27.176Z,0.85
2023-01-08T17:17:29.197Z,1.00
2023-01-08T17:22:30.927Z,2.88
2023-01-08T17:27:35.275Z,1.50
2023-01-08T17:32:37.495Z,1.27
2023-01-08T17:37:39.465Z,1.08
2023-01-08T17:42:41.235Z,0.80
2023-01-08T17:47:43.803Z,0.90
2023-01-08T17:52:45.748Z,0.80
2023-01-08T17:57:47.392Z,0.80
2023-01-08T18:02:49.068Z,0.80
2023-01-08T18:07:50.723Z,0.77
2023-01-08T18:12:52.503Z,0.60
2023-01-08T18:17:55.632Z,1.00
2023-01-08T18:22:58.476Z,0.90
2023-01-08T18:28:00.401Z,1.20
2023-01-08T18:33:03.149Z,0.98
2023-01-08T18:38:05.976Z,1.23
2023-01-08T18:43:07.493Z,2.33
2023-01-08T18:48:09.340Z,2.17
2023-01-08T18:53:11.490Z,1.20
2023-01-08T18:58:14.833Z,1.10
2023-01-08T19:03:17.610Z,1.63
2023-01-08T19:08:19.561Z,1.08
2023-01-08T19:13:21.848Z,1.10
2023-01-08T19:18:24.681Z,1.20
2023-01-08T19:23:27.485Z,1.00
2023-01-08T19:28:29.496Z,0.90
2023-01-08T19:33:32.127Z,0.90
2023-01-08T19:38:34.017Z,0.90
2023-01-08T19:43:35.844Z,0.90
2023-01-08T19:48:37.801Z,1.98
2023-01-08T19:53:40.303Z,1.10
2023-01-08T19:58:43.148Z,1.10
2023-01-08T20:03:45.334Z,0.95
2023-01-08T20:08:52.072Z,1.02
2023-01-08T20:13:53.867Z,1.10
2023-01-08T20:18:56.974Z,1.33
2023-01-08T20:24:02.579Z,1.00
2023-01-08T20:29:05.295Z,1.10
2023-01-08T20:34:11.231Z,1.20
2023-01-08T20:39:15.987Z,1.50
2023-01-08T20:44:17.819Z,0.90
2023-01-08T20:49:19.921Z,1.10
2023-01-08T20:54:22.599Z,1.13
2023-01-08T20:59:26.558Z,1.10
2023-01-08T21:04:28.876Z,0.82
2023-01-08T21:09:30.433Z,1.35
2023-01-08T21:14:32.530Z,0.73
2023-01-08T21:19:34.501Z,1.20
2023-01-08T21:24:37.606Z,1.55
2023-01-08T21:29:39.781Z,1.00
2023-01-08T21:34:42.883Z,1.15
2023-01-08T21:39:45.034Z,1.00
2023-01-08T21:44:46.901Z,1.10
2023-01-08T21:49:49.106Z,1.27
2023-01-08T21:54:51.865Z,0.93
2023-01-08T21:59:54.142Z,1.08
2023-01-08T22:04:56.847Z,1.42
2023-01-08T22:09:59.057Z,1.30
2023-01-08T22:15:01.459Z,1.13
2023-01-08T22:20:04.241Z,1.70
2023-01-08T22:25:06.392Z,1.80
2023-01-08T22:30:09.388Z,1.70
2023-01-08T22:35:12.709Z,1.83
2023-01-08T22:40:14.800Z,1.90
2023-01-08T22:45:17.130Z,1.30
2023-01-08T22:50:18.765Z,1.60
2023-01-08T22:55:20.783Z,1.98
2023-01-08T23:00:23.326Z,1.60
2023-01-08T23:05:24.909Z,1.50
2023-01-08T23:10:27.313Z,1.70
2023-01-08T23:15:29.039Z,2.47
2023-01-08T23:20:31.083Z,1.50
2023-01-08T23:25:33.500Z,0.60
2023-01-08T23:30:35.465Z,0.30
2023-01-08T23:35:37.909Z,0.28
2023-01-08T23:40:44.619Z,0.20
2023-01-08T23:45:46.992Z,0.20
2023-01-08T23:50:48.656Z,0.20
2023-01-08T23:55:51.020Z,0.20
